createdAt,value
2017-03-30T00:00:29.145Z,0
2017-03-30T00:01:09.562Z,0
2017-03-30T00:01:50.019Z,0
2017-03-30T00:02:30.462Z,0
2017-03-30T00:03:10.858Z,0
2017-03-30T00:03:51.251Z,0
2017-03-30T00:04:31.658Z,0
2017-03-30T00:05:12.060Z,0
2017-03-30T00:05:52.534Z,0
2017-03-30T00:06:32.908Z,0
2017-03-30T00:07:13.271Z,0
2017-03-30T00:07:53.697Z,0
2017-03-30T00:08:34.128Z,0
2017-03-30T00:09:14.562Z,0
2017-03-30T00:09:54.960Z,0
2017-03-30T00:10:35.349Z,0
2017-03-30T00:11:15.852Z,0
2017-03-30T00:13:37.471Z,0
2017-03-30T00:14:25.917Z,0
2017-03-30T00:15:14.996Z,0
2017-03-30T00:16:03.153Z,0
2017-03-30T00:16:51.785Z,0
2017-03-30T00:17:40.668Z,0
2017-03-30T00:18:28.640Z,0
2017-03-30T00:19:17.485Z,0
2017-03-30T00:20:05.812Z,0
2017-03-30T00:20:54.580Z,0
2017-03-30T00:21:42.914Z,0
2017-03-30T00:22:31.778Z,0
2017-03-30T00:23:20.450Z,0
2017-03-30T00:24:09.005Z,0
2017-03-30T00:24:57.185Z,0
2017-03-30T00:25:45.729Z,0
2017-03-30T00:26:34.622Z,0
2017-03-30T00:27:22.858Z,0
2017-03-30T00:28:11.402Z,0
2017-03-30T00:29:00.315Z,0
2017-03-30T00:29:48.669Z,0
2017-03-30T00:30:37.109Z,0
2017-03-30T00:31:25.818Z,0
2017-03-30T00:32:14.664Z,0
2017-03-30T00:33:03.366Z,0
2017-03-30T00:33:52.044Z,0
2017-03-30T00:34:40.596Z,0
2017-03-30T00:35:28.664Z,0
2017-03-30T00:36:17.145Z,0
2017-03-30T00:37:05.703Z,0
2017-03-30T00:37:54.722Z,0
2017-03-30T00:38:43.617Z,0
2017-03-30T00:39:31.817Z,0
2017-03-30T00:40:20.678Z,0
2017-03-30T00:41:09.130Z,0
2017-03-30T00:41:57.576Z,0
2017-03-30T00:42:46.534Z,0
2017-03-30T00:43:34.782Z,0
2017-03-30T00:44:23.641Z,0
2017-03-30T00:45:12.164Z,0
2017-03-30T00:46:00.857Z,0
2017-03-30T00:46:49.630Z,0
2017-03-30T00:47:37.749Z,0
2017-03-30T00:48:26.494Z,0
2017-03-30T00:49:14.638Z,0
2017-03-30T00:50:03.242Z,0
2017-03-30T00:50:51.691Z,0
2017-03-30T00:51:40.287Z,0
2017-03-30T00:52:28.737Z,0
2017-03-30T00:53:16.433Z,0
2017-03-30T00:53:56.789Z,0
2017-03-30T00:54:37.224Z,0
2017-03-30T00:55:17.606Z,0
2017-03-30T00:55:58.058Z,0
2017-03-30T00:56:38.457Z,0
2017-03-30T00:57:18.865Z,0
2017-03-30T00:58:01.262Z,0
2017-03-30T00:58:41.661Z,0
2017-03-30T00:59:22.090Z,0
2017-03-30T01:00:02.561Z,0
2017-03-30T01:00:42.945Z,0
2017-03-30T01:01:23.336Z,0
2017-03-30T01:02:03.743Z,0
2017-03-30T01:02:44.212Z,0
2017-03-30T01:03:24.605Z,0
2017-03-30T01:04:05.003Z,0
2017-03-30T01:04:45.419Z,0
2017-03-30T01:05:25.866Z,0
2017-03-30T01:06:06.296Z,0
2017-03-30T01:06:46.733Z,0
2017-03-30T01:07:27.184Z,0
2017-03-30T01:08:07.612Z,0
2017-03-30T01:08:48.023Z,0
2017-03-30T01:09:28.475Z,0
2017-03-30T01:10:08.839Z,0
2017-03-30T01:10:49.222Z,0
2017-03-30T01:11:29.615Z,0
2017-03-30T01:12:10.077Z,0
2017-03-30T01:12:50.535Z,0
2017-03-30T01:13:31.017Z,0
2017-03-30T01:14:11.393Z,0
2017-03-30T01:14:51.787Z,0
2017-03-30T01:15:32.195Z,0
2017-03-30T01:16:12.644Z,0
2017-03-30T01:16:53.047Z,0
2017-03-30T01:17:33.398Z,0
2017-03-30T01:18:13.846Z,0
2017-03-30T01:18:54.261Z,0
2017-03-30T01:19:34.664Z,0
2017-03-30T01:20:15.045Z,0
2017-03-30T01:20:55.408Z,0
2017-03-30T01:21:35.833Z,0
2017-03-30T01:22:16.256Z,0
2017-03-30T01:22:56.649Z,0
2017-03-30T01:23:37.127Z,0
2017-03-30T01:24:17.503Z,0
2017-03-30T01:24:57.934Z,0
2017-03-30T01:25:38.378Z,0
2017-03-30T01:26:18.792Z,0
2017-03-30T01:26:59.198Z,0
2017-03-30T01:27:39.655Z,0
2017-03-30T01:28:20.035Z,0
2017-03-30T01:29:00.454Z,0
2017-03-30T01:29:40.838Z,0
2017-03-30T01:30:21.277Z,0
2017-03-30T01:31:01.719Z,0
2017-03-30T01:31:42.071Z,0
2017-03-30T01:32:22.514Z,0
2017-03-30T01:33:02.936Z,0
2017-03-30T01:33:43.325Z,0
2017-03-30T01:34:23.718Z,0
2017-03-30T01:35:04.145Z,0
2017-03-30T01:35:44.551Z,0
2017-03-30T01:36:24.996Z,0
2017-03-30T01:37:05.456Z,0
2017-03-30T01:37:45.903Z,0
2017-03-30T01:38:26.231Z,0
2017-03-30T01:39:06.643Z,0
2017-03-30T01:39:47.037Z,0
2017-03-30T01:40:27.448Z,0
2017-03-30T01:41:07.869Z,0
2017-03-30T01:41:48.254Z,0
2017-03-30T01:42:28.715Z,0
2017-03-30T01:43:09.063Z,0
2017-03-30T01:43:49.463Z,0
2017-03-30T01:44:29.903Z,0
2017-03-30T01:45:10.330Z,0
2017-03-30T01:45:50.771Z,0
2017-03-30T01:46:31.157Z,0
2017-03-30T01:47:11.577Z,0
2017-03-30T01:47:51.978Z,0
2017-03-30T01:48:32.433Z,0
2017-03-30T01:49:12.809Z,0
2017-03-30T01:49:53.248Z,0
2017-03-30T01:50:33.637Z,0
2017-03-30T01:51:14.080Z,0
2017-03-30T01:51:54.481Z,0
2017-03-30T01:52:34.885Z,0
2017-03-30T01:53:15.307Z,0
2017-03-30T01:53:55.742Z,0
2017-03-30T01:54:36.144Z,0
2017-03-30T01:55:16.537Z,0
2017-03-30T01:55:56.959Z,0
2017-03-30T01:56:37.344Z,0
2017-03-30T01:57:17.772Z,0
2017-03-30T01:57:58.186Z,0
2017-03-30T01:58:38.571Z,0
2017-03-30T01:59:18.996Z,0
2017-03-30T01:59:59.394Z,0
2017-03-30T02:00:39.819Z,0
2017-03-30T02:01:20.183Z,0
2017-03-30T02:02:00.609Z,0
2017-03-30T02:02:41.039Z,0
2017-03-30T02:03:21.440Z,0
2017-03-30T02:04:01.853Z,0
2017-03-30T02:04:42.283Z,0
2017-03-30T02:05:22.698Z,0
2017-03-30T02:06:03.162Z,0
2017-03-30T02:06:43.570Z,0
2017-03-30T02:07:23.975Z,0
2017-03-30T02:08:04.356Z,0
2017-03-30T02:08:44.760Z,0
2017-03-30T02:09:25.200Z,0
2017-03-30T02:10:05.630Z,0
2017-03-30T02:10:46.009Z,0
2017-03-30T02:11:26.403Z,0
2017-03-30T02:12:06.807Z,0
2017-03-30T02:12:47.237Z,0
2017-03-30T02:13:27.613Z,0
2017-03-30T02:14:08.000Z,0
2017-03-30T02:14:48.413Z,0
2017-03-30T02:15:28.873Z,0
2017-03-30T02:16:09.286Z,0
2017-03-30T02:16:49.684Z,0
2017-03-30T02:17:30.088Z,0
2017-03-30T02:18:10.532Z,0
2017-03-30T02:18:50.961Z,0
2017-03-30T02:19:31.383Z,0
2017-03-30T02:20:11.765Z,0
2017-03-30T02:20:52.144Z,0
2017-03-30T02:21:32.570Z,0
2017-03-30T02:22:12.996Z,0
2017-03-30T02:22:53.386Z,0
2017-03-30T02:23:33.798Z,0
2017-03-30T02:24:14.171Z,0
2017-03-30T02:24:54.637Z,0
2017-03-30T02:25:35.038Z,0
2017-03-30T02:26:15.459Z,0
2017-03-30T02:26:55.839Z,0
2017-03-30T02:27:36.249Z,0
2017-03-30T02:28:16.636Z,0
2017-03-30T02:28:57.038Z,0
2017-03-30T02:29:37.442Z,0
2017-03-30T02:30:17.826Z,0
2017-03-30T02:30:58.236Z,0
2017-03-30T02:31:38.687Z,0
2017-03-30T02:32:19.092Z,0
2017-03-30T02:32:59.533Z,0
2017-03-30T02:33:39.962Z,0
2017-03-30T02:34:20.389Z,0
2017-03-30T02:35:00.798Z,0
2017-03-30T02:35:41.185Z,0
2017-03-30T02:36:21.670Z,0
2017-03-30T02:37:02.037Z,0
2017-03-30T02:37:42.448Z,0
2017-03-30T02:38:22.870Z,0
2017-03-30T02:39:03.290Z,0
2017-03-30T02:39:43.685Z,0
2017-03-30T02:40:26.655Z,0
2017-03-30T02:41:07.078Z,0
2017-03-30T02:41:47.508Z,0
2017-03-30T02:42:27.939Z,0
2017-03-30T02:43:09.633Z,0
2017-03-30T02:43:50.031Z,0
2017-03-30T02:44:30.449Z,0
2017-03-30T02:45:10.852Z,0
2017-03-30T02:45:51.281Z,0
2017-03-30T02:46:31.676Z,0
2017-03-30T02:47:12.078Z,0
2017-03-30T02:47:52.464Z,0
2017-03-30T02:48:32.857Z,0
2017-03-30T02:49:13.305Z,0
2017-03-30T02:49:53.706Z,0
2017-03-30T02:50:34.084Z,0
2017-03-30T02:51:14.567Z,0
2017-03-30T02:51:54.890Z,0
2017-03-30T02:52:35.381Z,0
2017-03-30T02:53:15.828Z,0
2017-03-30T02:53:56.271Z,0
2017-03-30T02:54:36.704Z,0
2017-03-30T02:55:17.135Z,0
2017-03-30T02:55:57.514Z,0
2017-03-30T02:56:37.945Z,0
2017-03-30T02:57:18.363Z,0
2017-03-30T02:57:58.743Z,0
2017-03-30T02:58:39.194Z,0
2017-03-30T02:59:19.555Z,0
2017-03-30T03:00:00.004Z,0
2017-03-30T03:00:40.495Z,0
2017-03-30T03:01:20.929Z,0
2017-03-30T03:02:01.315Z,0
2017-03-30T03:02:41.766Z,0
2017-03-30T03:03:22.185Z,0
2017-03-30T03:04:02.582Z,0
2017-03-30T03:04:42.958Z,0
2017-03-30T03:05:23.383Z,0
2017-03-30T03:06:03.813Z,0
2017-03-30T03:06:44.235Z,0
2017-03-30T03:07:24.654Z,0
2017-03-30T03:08:05.050Z,0
2017-03-30T03:08:45.471Z,0
2017-03-30T03:09:25.874Z,0
2017-03-30T03:10:06.291Z,0
2017-03-30T03:10:46.736Z,0
2017-03-30T03:11:27.138Z,0
2017-03-30T03:12:07.489Z,0
2017-03-30T03:12:47.917Z,0
2017-03-30T03:13:28.285Z,0
2017-03-30T03:14:08.693Z,0
2017-03-30T03:14:49.203Z,0
2017-03-30T03:15:29.502Z,0
2017-03-30T03:16:09.949Z,0
2017-03-30T03:16:50.366Z,0
2017-03-30T03:17:30.747Z,0
2017-03-30T03:18:11.161Z,0
2017-03-30T03:18:51.583Z,0
2017-03-30T03:19:32.073Z,0
2017-03-30T03:20:12.449Z,0
2017-03-30T03:20:52.891Z,0
2017-03-30T03:21:33.220Z,0
2017-03-30T03:22:13.649Z,0
2017-03-30T03:22:54.123Z,0
2017-03-30T03:23:35.084Z,0
2017-03-30T03:24:15.460Z,0
2017-03-30T03:24:55.864Z,0
2017-03-30T03:25:36.294Z,0
2017-03-30T03:26:16.712Z,0
2017-03-30T03:26:57.146Z,0
2017-03-30T03:27:37.631Z,0
2017-03-30T03:28:18.032Z,0
2017-03-30T03:28:58.456Z,0
2017-03-30T03:29:38.935Z,0
2017-03-30T03:30:19.393Z,0
2017-03-30T03:30:59.774Z,0
2017-03-30T03:31:40.234Z,0
2017-03-30T03:32:20.696Z,0
2017-03-30T03:33:01.102Z,0
2017-03-30T03:33:41.685Z,0
2017-03-30T03:34:25.538Z,0
2017-03-30T03:35:06.033Z,0
2017-03-30T03:35:46.519Z,0
2017-03-30T03:36:28.719Z,0
2017-03-30T03:37:09.181Z,0
2017-03-30T03:37:49.589Z,0
2017-03-30T03:38:29.974Z,0
2017-03-30T03:39:10.383Z,0
2017-03-30T03:39:50.817Z,0
2017-03-30T03:40:31.342Z,0
2017-03-30T03:42:54.062Z,0
2017-03-30T03:45:17.449Z,0
2017-03-30T03:46:03.265Z,0
2017-03-30T03:46:45.138Z,0
2017-03-30T03:47:25.542Z,0
2017-03-30T03:48:05.998Z,0
2017-03-30T03:48:46.400Z,0
2017-03-30T03:49:26.877Z,0
2017-03-30T03:50:07.225Z,0
2017-03-30T03:50:47.630Z,0
2017-03-30T03:51:28.064Z,0
2017-03-30T03:52:08.456Z,0
2017-03-30T03:52:49.056Z,0
2017-03-30T03:53:29.441Z,0
2017-03-30T03:54:09.915Z,0
2017-03-30T03:54:50.332Z,0
2017-03-30T03:55:30.748Z,0
2017-03-30T03:56:11.104Z,0
2017-03-30T03:56:51.527Z,0
2017-03-30T03:57:31.935Z,0
2017-03-30T03:58:12.405Z,0
2017-03-30T03:58:52.770Z,0
2017-03-30T03:59:33.186Z,0
2017-03-30T04:00:13.640Z,0
2017-03-30T04:00:54.036Z,0
2017-03-30T04:01:34.532Z,0
2017-03-30T04:02:14.963Z,0
2017-03-30T04:02:55.333Z,0
2017-03-30T04:03:35.732Z,0
2017-03-30T04:04:16.168Z,0
2017-03-30T04:04:56.511Z,0
2017-03-30T04:05:36.974Z,0
2017-03-30T04:06:17.372Z,0
2017-03-30T04:06:57.783Z,0
2017-03-30T04:07:38.166Z,0
2017-03-30T04:08:18.575Z,0
2017-03-30T04:08:58.990Z,0
2017-03-30T04:09:39.456Z,0
2017-03-30T04:10:19.854Z,0
2017-03-30T04:11:00.299Z,0
2017-03-30T04:11:40.654Z,0
2017-03-30T04:12:21.099Z,0
2017-03-30T04:13:01.499Z,0
2017-03-30T04:13:41.952Z,0
2017-03-30T04:14:22.403Z,0
2017-03-30T04:15:02.799Z,0
2017-03-30T04:15:43.204Z,0
2017-03-30T04:16:23.653Z,0
2017-03-30T04:17:04.068Z,0
2017-03-30T04:17:44.469Z,0
2017-03-30T04:18:24.885Z,0
2017-03-30T04:19:05.288Z,0
2017-03-30T04:19:45.709Z,0
2017-03-30T04:20:26.134Z,0
2017-03-30T04:21:06.554Z,0
2017-03-30T04:21:46.943Z,0
2017-03-30T04:22:27.361Z,0
2017-03-30T04:23:07.804Z,0
2017-03-30T04:23:50.126Z,0
2017-03-30T04:24:30.449Z,0
2017-03-30T04:25:10.896Z,0
2017-03-30T04:25:51.348Z,0
2017-03-30T04:26:31.752Z,0
2017-03-30T04:27:12.168Z,0
2017-03-30T04:27:52.570Z,0
2017-03-30T04:28:33.005Z,0
2017-03-30T04:29:13.390Z,0
2017-03-30T04:29:53.871Z,0
2017-03-30T04:30:34.219Z,0
2017-03-30T04:31:14.667Z,0
2017-03-30T04:31:55.098Z,0
2017-03-30T04:32:35.537Z,0
2017-03-30T04:33:15.930Z,0
2017-03-30T04:33:56.363Z,0
2017-03-30T04:34:36.751Z,0
2017-03-30T04:35:17.152Z,0
2017-03-30T04:35:57.529Z,0
2017-03-30T04:36:37.943Z,0
2017-03-30T04:37:18.346Z,0
2017-03-30T04:37:58.786Z,0
2017-03-30T04:38:39.203Z,0
2017-03-30T04:39:19.558Z,0
2017-03-30T04:39:59.960Z,0
2017-03-30T04:40:40.376Z,0
2017-03-30T04:41:20.819Z,0
2017-03-30T04:42:01.221Z,0
2017-03-30T04:42:41.631Z,0
2017-03-30T04:43:22.029Z,0
2017-03-30T04:44:02.416Z,0
2017-03-30T04:44:42.829Z,0
2017-03-30T04:45:23.259Z,0
2017-03-30T04:46:03.653Z,0
2017-03-30T04:46:44.042Z,0
2017-03-30T04:47:24.509Z,0
2017-03-30T04:48:04.878Z,0
2017-03-30T04:48:45.309Z,0
2017-03-30T04:49:25.725Z,0
2017-03-30T04:50:06.100Z,0
2017-03-30T04:50:46.525Z,0
2017-03-30T04:51:26.910Z,0
2017-03-30T04:52:07.344Z,0
2017-03-30T04:52:47.726Z,0
2017-03-30T04:53:28.153Z,0
2017-03-30T04:54:08.552Z,0
2017-03-30T04:54:49.013Z,0
2017-03-30T04:55:29.430Z,0
2017-03-30T04:56:09.791Z,0
2017-03-30T04:56:50.242Z,0
2017-03-30T04:57:30.710Z,0
2017-03-30T04:58:11.099Z,0
2017-03-30T04:58:51.539Z,0
2017-03-30T04:59:31.954Z,0
2017-03-30T05:00:12.339Z,0
2017-03-30T05:00:52.762Z,0
2017-03-30T05:01:33.177Z,0
2017-03-30T05:02:13.557Z,0
2017-03-30T05:02:53.994Z,0
2017-03-30T05:03:34.379Z,5
2017-03-30T05:04:14.786Z,5
2017-03-30T05:04:55.176Z,5
2017-03-30T05:05:35.612Z,5
2017-03-30T05:06:16.021Z,5
2017-03-30T05:06:56.404Z,5
2017-03-30T05:07:36.809Z,5
2017-03-30T05:08:17.235Z,5
2017-03-30T05:08:57.636Z,5
2017-03-30T05:09:38.067Z,5
2017-03-30T05:10:18.491Z,5
2017-03-30T05:10:58.922Z,5
2017-03-30T05:11:39.262Z,10
2017-03-30T05:12:19.692Z,10
2017-03-30T05:13:00.088Z,10
2017-03-30T05:13:40.550Z,10
2017-03-30T05:14:20.937Z,10
2017-03-30T05:15:01.350Z,10
2017-03-30T05:15:41.706Z,10
2017-03-30T05:16:22.178Z,10
2017-03-30T05:17:02.573Z,10
2017-03-30T05:17:42.947Z,10
2017-03-30T05:18:23.368Z,15
2017-03-30T05:19:03.767Z,15
2017-03-30T05:19:44.185Z,15
2017-03-30T05:20:24.619Z,15
2017-03-30T05:21:04.996Z,15
2017-03-30T05:21:45.444Z,15
2017-03-30T05:22:25.871Z,15
2017-03-30T05:23:06.303Z,15
2017-03-30T05:23:46.714Z,15
2017-03-30T05:24:27.090Z,15
2017-03-30T05:25:07.493Z,20
2017-03-30T05:25:47.939Z,20
2017-03-30T05:26:28.332Z,20
2017-03-30T05:27:08.734Z,20
2017-03-30T05:27:49.357Z,20
2017-03-30T05:28:29.687Z,20
2017-03-30T05:29:10.146Z,20
2017-03-30T05:29:50.567Z,25
2017-03-30T05:30:30.979Z,25
2017-03-30T05:31:11.370Z,25
2017-03-30T05:31:51.822Z,25
2017-03-30T05:32:32.259Z,25
2017-03-30T05:33:12.675Z,25
2017-03-30T05:33:53.056Z,25
2017-03-30T05:34:33.510Z,25
2017-03-30T05:35:13.900Z,30
2017-03-30T05:35:54.327Z,30
2017-03-30T05:36:34.747Z,30
2017-03-30T05:37:15.151Z,30
2017-03-30T05:37:55.552Z,30
2017-03-30T05:38:35.941Z,35
2017-03-30T05:39:16.344Z,35
2017-03-30T05:39:56.787Z,35
2017-03-30T05:40:37.183Z,35
2017-03-30T05:41:17.591Z,35
2017-03-30T05:41:58.044Z,40
2017-03-30T05:42:38.426Z,40
2017-03-30T05:43:19.083Z,40
2017-03-30T05:44:00.295Z,45
2017-03-30T05:44:40.735Z,45
2017-03-30T05:45:21.161Z,50
2017-03-30T05:46:01.534Z,55
2017-03-30T05:46:41.918Z,55
2017-03-30T05:47:22.348Z,55
2017-03-30T05:48:02.733Z,55
2017-03-30T05:48:43.171Z,55
2017-03-30T05:49:23.636Z,55
2017-03-30T05:50:04.150Z,55
2017-03-30T05:50:44.542Z,60
2017-03-30T05:51:24.950Z,60
2017-03-30T05:52:05.317Z,65
2017-03-30T05:52:45.772Z,65
2017-03-30T05:53:26.505Z,70
2017-03-30T05:54:06.971Z,70
2017-03-30T05:54:47.329Z,70
2017-03-30T05:55:27.795Z,75
2017-03-30T05:56:08.195Z,80
2017-03-30T05:56:48.802Z,85
2017-03-30T05:57:29.180Z,95
2017-03-30T05:58:10.151Z,95
2017-03-30T05:58:50.576Z,100
2017-03-30T05:59:30.964Z,105
2017-03-30T06:00:11.356Z,115
2017-03-30T06:00:52.893Z,120
2017-03-30T06:01:33.178Z,125
2017-03-30T06:02:13.612Z,125
2017-03-30T06:02:54.062Z,130
2017-03-30T06:03:34.492Z,130
2017-03-30T06:04:14.918Z,135
2017-03-30T06:04:55.374Z,140
2017-03-30T06:05:35.720Z,140
2017-03-30T06:06:16.136Z,145
2017-03-30T06:06:56.561Z,145
2017-03-30T06:07:36.999Z,150
2017-03-30T06:08:17.417Z,165
2017-03-30T06:08:57.794Z,175
2017-03-30T06:09:38.181Z,180
2017-03-30T06:10:18.592Z,185
2017-03-30T06:10:59.004Z,185
2017-03-30T06:11:39.441Z,195
2017-03-30T06:12:19.887Z,200
2017-03-30T06:13:00.340Z,205
2017-03-30T06:13:40.747Z,215
2017-03-30T06:14:21.159Z,225
2017-03-30T06:15:01.565Z,230
2017-03-30T06:15:42.011Z,230
2017-03-30T06:16:22.481Z,230
2017-03-30T06:17:04.660Z,235
2017-03-30T06:17:45.048Z,240
2017-03-30T06:18:25.502Z,230
2017-03-30T06:19:05.947Z,230
2017-03-30T06:19:46.276Z,220
2017-03-30T06:20:26.700Z,215
2017-03-30T06:21:07.133Z,215
2017-03-30T06:21:47.596Z,220
2017-03-30T06:22:28.016Z,225
2017-03-30T06:23:08.423Z,230
2017-03-30T06:23:48.842Z,240
2017-03-30T06:24:29.260Z,245
2017-03-30T06:25:09.645Z,260
2017-03-30T06:25:50.118Z,270
2017-03-30T06:26:30.503Z,280
2017-03-30T06:27:10.912Z,280
2017-03-30T06:27:51.356Z,275
2017-03-30T06:28:31.768Z,270
2017-03-30T06:29:12.124Z,270
2017-03-30T06:29:52.560Z,270
2017-03-30T06:30:32.997Z,270
2017-03-30T06:31:13.358Z,275
2017-03-30T06:31:53.783Z,280
2017-03-30T06:32:34.216Z,285
2017-03-30T06:33:14.645Z,290
2017-03-30T06:33:55.013Z,295
2017-03-30T06:34:35.457Z,305
2017-03-30T06:35:15.888Z,310
2017-03-30T06:35:56.257Z,315
2017-03-30T06:36:36.722Z,330
2017-03-30T06:37:17.084Z,345
2017-03-30T06:37:57.508Z,355
2017-03-30T06:38:37.910Z,355
2017-03-30T06:39:18.291Z,355
2017-03-30T06:39:58.711Z,350
2017-03-30T06:40:39.129Z,345
2017-03-30T06:41:19.579Z,345
2017-03-30T06:42:00.005Z,345
2017-03-30T06:42:40.416Z,345
2017-03-30T06:43:20.809Z,340
2017-03-30T06:44:01.222Z,345
2017-03-30T06:44:41.625Z,345
2017-03-30T06:45:22.022Z,350
2017-03-30T06:46:02.459Z,360
2017-03-30T06:48:23.280Z,370
2017-03-30T06:49:11.872Z,370
2017-03-30T06:49:57.597Z,375
2017-03-30T06:50:44.801Z,375
2017-03-30T06:51:33.598Z,410
2017-03-30T06:52:21.475Z,385
2017-03-30T06:53:04.853Z,405
2017-03-30T06:53:45.268Z,400
2017-03-30T06:54:25.692Z,390
2017-03-30T06:55:06.119Z,390
2017-03-30T06:55:46.498Z,395
2017-03-30T06:56:26.968Z,400
2017-03-30T06:57:07.330Z,425
2017-03-30T06:57:47.767Z,520
2017-03-30T06:58:28.163Z,585
2017-03-30T06:59:08.614Z,550
2017-03-30T06:59:49.003Z,520
2017-03-30T07:00:29.447Z,530
2017-03-30T07:01:09.917Z,535
2017-03-30T07:01:50.511Z,540
2017-03-30T07:02:30.890Z,525
2017-03-30T07:03:11.351Z,525
2017-03-30T07:03:51.743Z,530
2017-03-30T07:04:32.195Z,545
2017-03-30T07:05:12.585Z,565
2017-03-30T07:05:52.969Z,610
2017-03-30T07:06:33.432Z,610
2017-03-30T07:07:13.811Z,650
2017-03-30T07:07:54.252Z,675
2017-03-30T07:08:34.715Z,610
2017-03-30T07:09:15.142Z,605
2017-03-30T07:09:55.531Z,605
2017-03-30T07:10:35.912Z,635
2017-03-30T07:11:16.299Z,660
2017-03-30T07:11:56.729Z,710
2017-03-30T07:12:37.202Z,625
2017-03-30T07:13:17.592Z,605
2017-03-30T07:13:58.008Z,585
2017-03-30T07:14:38.368Z,580
2017-03-30T07:15:18.793Z,585
2017-03-30T07:15:59.163Z,590
2017-03-30T07:16:39.566Z,590
2017-03-30T07:17:19.976Z,585
2017-03-30T07:18:00.436Z,580
2017-03-30T07:18:40.848Z,580
2017-03-30T07:19:21.262Z,585
2017-03-30T07:20:01.631Z,600
2017-03-30T07:20:42.029Z,615
2017-03-30T07:21:22.442Z,630
2017-03-30T07:22:02.872Z,645
2017-03-30T07:22:43.276Z,660
2017-03-30T07:23:23.696Z,660
2017-03-30T07:24:04.137Z,665
2017-03-30T07:24:44.553Z,680
2017-03-30T07:25:25.018Z,690
2017-03-30T07:26:05.448Z,695
2017-03-30T07:26:45.878Z,710
2017-03-30T07:27:26.262Z,720
2017-03-30T07:28:06.694Z,710
2017-03-30T07:28:47.104Z,700
2017-03-30T07:29:27.495Z,695
2017-03-30T07:30:07.935Z,695
2017-03-30T07:30:48.353Z,690
2017-03-30T07:31:28.755Z,695
2017-03-30T07:32:09.180Z,690
2017-03-30T07:32:49.569Z,710
2017-03-30T07:33:29.989Z,680
2017-03-30T07:34:10.386Z,680
2017-03-30T07:34:50.794Z,680
2017-03-30T07:35:31.216Z,685
2017-03-30T07:36:11.763Z,685
2017-03-30T07:36:52.076Z,690
2017-03-30T07:37:32.476Z,700
2017-03-30T07:38:12.904Z,715
2017-03-30T07:38:53.285Z,730
2017-03-30T07:39:34.394Z,745
2017-03-30T07:40:14.774Z,760
2017-03-30T07:40:55.163Z,775
2017-03-30T07:41:35.603Z,790
2017-03-30T07:42:16.040Z,795
2017-03-30T07:42:56.458Z,790
2017-03-30T07:43:36.825Z,780
2017-03-30T07:44:17.272Z,790
2017-03-30T07:44:57.627Z,770
2017-03-30T07:45:38.073Z,760
2017-03-30T07:46:18.458Z,760
2017-03-30T07:46:58.932Z,765
2017-03-30T07:47:39.344Z,765
2017-03-30T07:48:19.775Z,770
2017-03-30T07:49:00.175Z,780
2017-03-30T07:49:40.586Z,800
2017-03-30T07:50:21.028Z,820
2017-03-30T07:51:01.442Z,850
2017-03-30T07:51:41.823Z,885
2017-03-30T07:52:22.234Z,920
2017-03-30T07:53:02.690Z,950
2017-03-30T07:53:43.072Z,985
2017-03-30T07:54:23.512Z,1015
2017-03-30T07:55:03.879Z,1020
2017-03-30T07:55:44.303Z,1045
2017-03-30T07:56:24.725Z,1065
2017-03-30T07:57:05.101Z,1115
2017-03-30T07:57:45.520Z,1335
2017-03-30T07:58:25.936Z,1395
2017-03-30T07:59:06.378Z,1250
2017-03-30T07:59:46.736Z,1205
2017-03-30T08:00:27.160Z,1535
2017-03-30T08:01:07.599Z,1450
2017-03-30T08:01:48.013Z,1300
2017-03-30T08:02:28.501Z,1350
2017-03-30T08:03:08.908Z,1390
2017-03-30T08:03:49.327Z,1415
2017-03-30T08:04:29.783Z,1655
2017-03-30T08:05:10.179Z,1590
2017-03-30T08:05:50.603Z,1295
2017-03-30T08:06:30.998Z,1305
2017-03-30T08:07:11.393Z,1450
2017-03-30T08:07:51.810Z,1720
2017-03-30T08:08:32.274Z,1970
2017-03-30T08:09:12.669Z,1870
2017-03-30T08:09:53.067Z,1905
2017-03-30T08:10:33.510Z,3900
2017-03-30T08:11:13.904Z,2260
2017-03-30T08:11:54.351Z,1670
2017-03-30T08:12:34.779Z,1545
2017-03-30T08:13:15.218Z,1305
2017-03-30T08:13:55.580Z,1240
2017-03-30T08:14:36.017Z,1235
2017-03-30T08:15:16.472Z,1290
2017-03-30T08:15:56.828Z,1450
2017-03-30T08:16:37.290Z,3770
2017-03-30T08:17:17.690Z,1835
2017-03-30T08:17:58.075Z,1560
2017-03-30T08:18:38.453Z,1660
2017-03-30T08:19:18.959Z,1575
2017-03-30T08:19:59.387Z,1565
2017-03-30T08:20:39.839Z,1825
2017-03-30T08:21:20.255Z,3145
2017-03-30T08:22:00.678Z,2730
2017-03-30T08:22:41.145Z,2450
2017-03-30T08:23:21.546Z,2135
2017-03-30T08:24:01.968Z,2620
2017-03-30T08:24:42.470Z,2275
2017-03-30T08:25:22.890Z,2125
2017-03-30T08:26:03.290Z,2940
2017-03-30T08:26:43.705Z,4075
2017-03-30T08:27:24.126Z,3355
2017-03-30T08:28:04.608Z,1990
2017-03-30T08:28:45.014Z,1920
2017-03-30T08:29:25.479Z,1950
2017-03-30T11:02:23.975Z,5835
2017-03-30T11:03:04.390Z,5605
2017-03-30T11:03:44.832Z,5420
2017-03-30T11:04:25.303Z,5595
2017-03-30T11:05:06.272Z,5720
2017-03-30T11:05:47.607Z,5420
2017-03-30T11:06:28.990Z,5325
2017-03-30T11:07:10.383Z,5105
2017-03-30T11:07:51.664Z,5270
2017-03-30T11:08:35.389Z,5330
2017-03-30T11:09:16.395Z,5365
2017-03-30T11:09:56.838Z,5295
2017-03-30T11:10:38.166Z,5480
2017-03-30T11:11:19.616Z,5630
2017-03-30T11:12:00.051Z,5425
2017-03-30T11:12:40.477Z,5385
2017-03-30T11:13:21.494Z,5375
2017-03-30T11:14:01.950Z,5405
2017-03-30T11:14:42.380Z,5700
2017-03-30T11:15:22.892Z,5670
2017-03-30T11:16:03.277Z,5685
2017-03-30T11:16:43.735Z,5545
2017-03-30T11:17:24.183Z,5560
2017-03-30T11:18:04.627Z,5330
2017-03-30T11:18:45.658Z,5580
2017-03-30T11:19:26.933Z,5525
2017-03-30T11:20:07.392Z,5330
2017-03-30T11:20:47.807Z,5325
2017-03-30T11:21:29.003Z,5370
2017-03-30T11:22:09.459Z,5245
2017-03-30T11:22:49.869Z,5225
2017-03-30T11:23:30.283Z,5135
2017-03-30T11:24:11.568Z,5335
2017-03-30T11:24:53.523Z,5255
2017-03-30T11:25:33.907Z,5000
2017-03-30T11:26:15.982Z,4730
2017-03-30T11:26:57.091Z,5025
2017-03-30T11:27:37.542Z,5405
2017-03-30T11:28:17.970Z,5325
2017-03-30T11:28:58.456Z,5210
2017-03-30T11:29:38.898Z,5145
2017-03-30T11:30:19.337Z,5125
2017-03-30T11:31:00.511Z,5100
2017-03-30T11:33:28.530Z,5260
2017-03-30T11:34:08.983Z,5310
2017-03-30T11:36:36.826Z,4730
2017-03-30T11:37:17.276Z,4885
2017-03-30T11:37:58.533Z,4970
2017-03-30T11:38:38.979Z,5055
2017-03-30T11:41:08.047Z,5130
2017-03-30T11:41:48.899Z,4950
2017-03-30T11:42:29.346Z,5085
2017-03-30T11:43:09.772Z,5120
2017-03-30T11:43:50.199Z,5265
2017-03-30T11:44:30.633Z,5145
2017-03-30T11:45:11.105Z,4940
2017-03-30T11:45:51.543Z,4820
2017-03-30T11:46:32.033Z,5295
2017-03-30T11:47:13.289Z,5305
2017-03-30T11:47:53.768Z,5295
2017-03-30T11:48:34.216Z,5185
2017-03-30T11:49:14.619Z,5300
2017-03-30T11:49:55.131Z,5310
2017-03-30T11:50:35.544Z,5325
2017-03-30T11:51:15.913Z,5500
2017-03-30T11:51:56.372Z,5195
2017-03-30T11:52:36.782Z,4890
2017-03-30T11:53:17.224Z,4860
2017-03-30T11:53:57.608Z,4975
2017-03-30T11:54:38.679Z,5285
2017-03-30T11:57:06.815Z,3550
2017-03-30T11:57:47.256Z,4630
2017-03-30T11:58:27.720Z,4485
2017-03-30T11:59:08.125Z,4650
2017-03-30T11:59:48.578Z,4415
2017-03-30T12:00:28.975Z,4415
2017-03-30T12:01:09.381Z,4335
2017-03-30T12:03:48.656Z,4480
2017-03-30T12:04:29.152Z,4085
2017-03-30T12:05:09.546Z,3925
2017-03-30T12:05:49.957Z,4080
2017-03-30T12:06:30.443Z,3955
2017-03-30T12:07:10.814Z,1570
2017-03-30T12:07:51.254Z,1400
2017-03-30T12:08:32.202Z,1010
2017-03-30T12:09:12.662Z,1240
2017-03-30T12:09:53.088Z,1130
2017-03-30T12:10:33.525Z,1640
2017-03-30T12:11:13.913Z,1170
2017-03-30T12:11:54.360Z,4720
2017-03-30T12:12:34.798Z,4995
2017-03-30T12:13:15.271Z,4635
2017-03-30T12:13:55.690Z,4940
2017-03-30T12:14:36.078Z,4760
2017-03-30T12:15:16.537Z,4535
2017-03-30T12:15:56.979Z,4485
2017-03-30T12:16:37.406Z,4855
2017-03-30T12:17:17.817Z,5110
2017-03-30T12:17:58.970Z,4970
2017-03-30T12:18:39.497Z,4880
2017-03-30T12:19:19.915Z,4870
2017-03-30T12:20:00.315Z,5260
2017-03-30T12:20:41.487Z,5495
2017-03-30T12:21:22.392Z,5195
2017-03-30T12:22:02.815Z,4765
2017-03-30T12:22:44.189Z,4890
2017-03-30T12:23:24.691Z,5100
2017-03-30T12:24:05.151Z,5265
2017-03-30T12:24:45.570Z,5220
2017-03-30T12:25:25.976Z,5000
2017-03-30T12:26:06.393Z,5180
2017-03-30T12:26:46.794Z,5175
2017-03-30T12:27:27.248Z,5020
2017-03-30T12:28:07.648Z,4835
2017-03-30T12:28:48.082Z,4965
2017-03-30T12:29:28.482Z,4890
2017-03-30T12:30:08.915Z,4925
2017-03-30T12:30:49.357Z,4770
2017-03-30T12:31:29.839Z,4465